Terminal Aerodrome Forecast
Issued by NWS

Home | Current Version | Previous Version | Text Only | Print | Product List | Glossary On
Versions: 1 2 3 4 5 6 7 8 9 10 11 12 13 14 15
246
FTPA31 PHFO 261734 AAA
TAFHKO
TAF AMD
PHKO 261734Z 2618/2718 VRB05KT P6SM FEW045
     FM262000 21010KT P6SM FEW030 SCT050
     FM270400 15008KT P6SM FEW030 BKN050
     FM270900 10005KT P6SM FEW030 BKN050=

USA.gov is the U.S. government's official web portal to all federal, state and local government web resources and services.